createdAt,value
2022-10-26T00:01:45.076Z,100421.63
2022-10-26T00:04:11.765Z,100413.91
2022-10-26T00:06:38.289Z,100408.59
2022-10-26T00:09:06.265Z,100410.41
2022-10-26T00:11:32.773Z,100409.47
2022-10-26T00:13:59.290Z,100393.25
2022-10-26T00:16:27.699Z,100418.19
2022-10-26T00:18:54.595Z,100416.47
2022-10-26T00:21:21.124Z,100407.81
2022-10-26T00:23:47.843Z,100416.78
2022-10-26T00:26:14.475Z,100391.75
2022-10-26T00:28:41.368Z,100422.00
2022-10-26T00:31:16.109Z,100421.38
2022-10-26T00:33:42.830Z,100416.06
2022-10-26T00:36:10.240Z,100426.31
2022-10-26T00:38:37.662Z,100426.31
2022-10-26T00:41:04.308Z,100421.72
2022-10-26T00:43:30.782Z,100420.53
2022-10-26T00:45:59.688Z,100406.31
2022-10-26T00:48:29.865Z,100415.13
2022-10-26T00:50:59.514Z,100410.84
2022-10-26T00:53:27.301Z,100408.44
2022-10-26T00:55:54.988Z,100416.84
2022-10-26T00:58:23.170Z,100411.28
2022-10-26T01:00:50.173Z,100400.22
2022-10-26T01:03:17.608Z,100420.16
2022-10-26T01:05:47.709Z,100419.25
2022-10-26T01:08:17.020Z,100419.09
2022-10-26T01:10:44.013Z,100408.13
2022-10-26T01:13:12.036Z,100412.75
2022-10-26T01:16:05.304Z,100407.44
2022-10-26T01:18:37.824Z,100408.28
2022-10-26T01:21:07.282Z,100405.81
2022-10-26T01:23:56.195Z,100387.69
2022-10-26T01:27:00.872Z,100402.66
2022-10-26T01:29:39.247Z,100394.00
2022-10-26T01:32:29.739Z,100396.56
2022-10-26T01:35:08.512Z,100399.31
2022-10-26T01:37:42.599Z,100404.69
2022-10-26T01:40:21.400Z,100395.25
2022-10-26T01:42:53.411Z,100398.06
2022-10-26T01:45:19.996Z,100402.28
2022-10-26T01:47:48.226Z,100391.81
2022-10-26T01:50:16.885Z,100393.41
2022-10-26T01:52:43.440Z,100385.09
2022-10-26T01:55:44.649Z,100391.03
2022-10-26T01:58:44.430Z,100394.44
2022-10-26T02:01:42.324Z,100393.56
2022-10-26T02:04:30.897Z,100360.63
2022-10-26T02:07:15.518Z,100377.56
2022-10-26T02:09:51.959Z,100374.50
2022-10-26T02:12:49.849Z,100393.63
2022-10-26T02:15:22.261Z,100378.44
2022-10-26T02:18:00.577Z,100378.19
2022-10-26T02:20:31.692Z,100387.78
2022-10-26T02:23:03.820Z,100358.44
2022-10-26T02:25:34.303Z,100355.00
2022-10-26T02:28:07.435Z,100378.34
2022-10-26T02:30:35.520Z,100376.72
2022-10-26T02:33:04.371Z,100371.34
2022-10-26T02:35:33.548Z,100362.59
2022-10-26T02:38:04.684Z,100365.31
2022-10-26T02:40:34.023Z,100369.63
2022-10-26T02:43:06.668Z,100373.28
2022-10-26T02:46:02.531Z,100363.19
2022-10-26T02:48:29.239Z,100362.34
2022-10-26T02:51:23.511Z,100329.16
2022-10-26T02:54:03.727Z,100354.84
2022-10-26T02:56:45.424Z,100354.06
2022-10-26T02:59:13.766Z,100375.28
2022-10-26T03:01:41.887Z,100338.78
2022-10-26T03:04:08.605Z,100333.06
2022-10-26T03:06:35.156Z,100324.25
2022-10-26T03:09:01.666Z,100326.81
2022-10-26T03:11:28.301Z,100351.16
2022-10-26T03:13:54.937Z,100341.41
2022-10-26T03:16:21.483Z,100324.25
2022-10-26T03:18:47.984Z,100337.91
2022-10-26T03:21:14.511Z,100342.28
2022-10-26T03:23:42.010Z,100354.84
2022-10-26T03:26:08.819Z,100351.66
2022-10-26T03:28:35.366Z,100365.53
2022-10-26T03:31:01.867Z,100351.41
2022-10-26T03:33:28.447Z,100339.56
2022-10-26T03:35:56.824Z,100359.38
2022-10-26T03:38:23.818Z,100363.97
2022-10-26T03:40:50.361Z,100364.97
2022-10-26T03:43:16.879Z,100369.34
2022-10-26T03:45:43.634Z,100366.38
2022-10-26T03:48:10.193Z,100348.47
2022-10-26T03:50:36.898Z,100369.03
2022-10-26T03:53:03.509Z,100366.38
2022-10-26T03:55:29.966Z,100344.97
2022-10-26T03:57:56.584Z,100344.88
2022-10-26T04:00:23.241Z,100355.63
2022-10-26T04:03:00.137Z,100353.81
2022-10-26T04:05:28.277Z,100361.09
2022-10-26T04:07:59.517Z,100353.34
2022-10-26T04:10:27.797Z,100343.94
2022-10-26T04:12:55.437Z,100338.78
2022-10-26T04:15:22.491Z,100329.25
2022-10-26T04:17:55.003Z,100336.94
2022-10-26T04:20:21.611Z,100344.97
2022-10-26T04:22:48.180Z,100354.72
2022-10-26T04:25:14.758Z,100354.06
2022-10-26T04:27:41.337Z,100354.06
2022-10-26T04:30:09.999Z,100348.31
2022-10-26T04:32:36.660Z,100354.41
2022-10-26T04:35:03.292Z,100359.06
2022-10-26T04:37:29.906Z,100354.69
2022-10-26T04:39:56.588Z,100360.06
2022-10-26T04:42:23.267Z,100362.81
2022-10-26T04:44:49.785Z,100358.50
2022-10-26T04:47:16.347Z,100356.72
2022-10-26T04:49:43.009Z,100353.75
2022-10-26T04:52:09.570Z,100345.03
2022-10-26T04:54:36.062Z,100344.72
2022-10-26T04:57:02.562Z,100342.06
2022-10-26T04:59:29.077Z,100347.09
2022-10-26T05:01:55.707Z,100351.25
2022-10-26T05:04:22.475Z,100347.97
2022-10-26T05:06:48.983Z,100344.44
2022-10-26T05:09:15.469Z,100324.25
2022-10-26T05:11:42.003Z,100330.53
2022-10-26T05:14:09.741Z,100335.72
2022-10-26T05:16:36.271Z,100334.34
2022-10-26T05:19:02.870Z,100343.22
2022-10-26T05:21:29.383Z,100345.19
2022-10-26T05:23:55.961Z,100334.81
2022-10-26T05:26:23.649Z,100335.75
2022-10-26T05:28:51.469Z,100322.09
2022-10-26T05:31:17.962Z,100338.31
2022-10-26T05:33:44.482Z,100349.63
2022-10-26T05:36:11.012Z,100344.31
2022-10-26T05:38:37.635Z,100349.63
2022-10-26T05:41:04.285Z,100324.81
2022-10-26T05:43:30.856Z,100355.94
2022-10-26T05:45:57.457Z,100362.09
2022-10-26T05:48:24.018Z,100345.66
2022-10-26T05:50:50.996Z,100352.03
2022-10-26T05:53:17.818Z,100354.41
2022-10-26T05:55:44.606Z,100366.53
2022-10-26T05:58:13.157Z,100367.47
2022-10-26T06:00:50.078Z,100363.88
2022-10-26T06:04:04.253Z,100360.88
2022-10-26T06:06:41.749Z,100372.28
2022-10-26T06:09:14.089Z,100380.91
2022-10-26T06:11:41.403Z,100378.19
2022-10-26T06:14:09.757Z,100334.41
2022-10-26T06:17:03.416Z,100367.63
2022-10-26T06:19:51.896Z,100364.25
2022-10-26T06:22:28.082Z,100371.50
2022-10-26T06:25:16.427Z,100382.69
2022-10-26T06:27:45.637Z,100393.22
2022-10-26T06:30:12.612Z,100388.72
2022-10-26T06:32:41.588Z,100385.28
2022-10-26T06:35:16.917Z,100405.97
2022-10-26T06:37:45.617Z,100399.72
2022-10-26T06:40:15.609Z,100411.19
2022-10-26T06:42:51.094Z,100418.22
2022-10-26T06:45:18.322Z,100420.75
2022-10-26T06:48:06.055Z,100411.34
2022-10-26T06:50:38.195Z,100412.91
2022-10-26T06:53:09.798Z,100432.72
2022-10-26T06:55:43.855Z,100436.94
2022-10-26T06:58:15.722Z,100443.63
2022-10-26T07:00:44.663Z,100443.53
2022-10-26T07:03:11.299Z,100451.97
2022-10-26T07:05:38.013Z,100446.47
2022-10-26T07:08:05.103Z,100448.66
2022-10-26T07:10:32.127Z,100446.84
2022-10-26T07:12:58.713Z,100453.69
2022-10-26T07:15:25.248Z,100448.56
2022-10-26T07:17:52.300Z,100453.69
2022-10-26T07:20:20.824Z,100433.75
2022-10-26T07:22:57.008Z,100441.38
2022-10-26T07:25:25.165Z,100443.53
2022-10-26T07:27:52.212Z,100456.50
2022-10-26T07:30:18.977Z,100451.19
2022-10-26T07:32:45.496Z,100456.22
2022-10-26T07:35:12.071Z,100450.25
2022-10-26T07:37:38.692Z,100459.66
2022-10-26T07:40:07.044Z,100481.28
2022-10-26T07:42:34.367Z,100474.66
2022-10-26T07:45:00.935Z,100484.53
2022-10-26T07:47:27.469Z,100493.03
2022-10-26T07:49:54.001Z,100487.03
2022-10-26T07:52:21.528Z,100498.00
2022-10-26T07:54:48.091Z,100500.94
2022-10-26T07:57:16.997Z,100503.00
2022-10-26T07:59:43.744Z,100506.00
2022-10-26T08:02:10.582Z,100493.22
2022-10-26T08:04:37.169Z,100493.59
2022-10-26T08:07:03.706Z,100493.09
2022-10-26T08:09:30.392Z,100494.97
2022-10-26T08:11:56.920Z,100505.16
2022-10-26T08:14:23.454Z,100502.41
2022-10-26T08:16:52.561Z,100503.09
2022-10-26T08:19:20.064Z,100484.94
2022-10-26T08:21:46.674Z,100506.28
2022-10-26T08:24:13.578Z,100489.56
2022-10-26T08:26:40.189Z,100493.81
2022-10-26T08:29:06.931Z,100501.84
2022-10-26T08:31:33.701Z,100488.94
2022-10-26T08:34:00.342Z,100506.13
2022-10-26T08:36:28.116Z,100483.78
2022-10-26T08:38:54.712Z,100502.41
2022-10-26T08:41:33.156Z,100501.47
2022-10-26T08:44:12.222Z,100495.00
2022-10-26T08:46:45.698Z,100498.88
2022-10-26T08:49:15.225Z,100502.03
2022-10-26T08:51:42.773Z,100496.69
2022-10-26T08:54:19.463Z,100512.25
2022-10-26T08:56:58.984Z,100502.34
2022-10-26T08:59:40.860Z,100519.13
2022-10-26T09:02:15.056Z,100521.13
2022-10-26T09:04:42.154Z,100501.81
2022-10-26T09:07:14.781Z,100520.78
2022-10-26T09:09:57.624Z,100517.25
2022-10-26T09:12:42.670Z,100528.38
2022-10-26T09:15:19.305Z,100522.56
2022-10-26T09:17:48.452Z,100528.84
2022-10-26T09:20:52.233Z,100531.34
2022-10-26T09:23:58.380Z,100525.78
2022-10-26T09:26:45.775Z,100535.06
2022-10-26T09:29:14.180Z,100539.53
2022-10-26T09:31:44.360Z,100545.63
2022-10-26T09:34:24.357Z,100555.22
2022-10-26T09:36:56.121Z,100560.44
2022-10-26T09:39:44.850Z,100556.28
2022-10-26T09:42:33.091Z,100563.69
2022-10-26T09:45:22.839Z,100557.78
2022-10-26T09:47:56.764Z,100559.09
2022-10-26T09:50:28.834Z,100551.06
2022-10-26T09:52:56.703Z,100556.84
2022-10-26T09:55:23.478Z,100558.75
2022-10-26T09:57:57.255Z,100566.00
2022-10-26T10:00:25.902Z,100558.00
2022-10-26T10:02:55.454Z,100564.56
2022-10-26T10:05:52.065Z,100570.59
2022-10-26T10:08:27.622Z,100561.28
2022-10-26T10:11:13.797Z,100551.41
2022-10-26T10:13:45.500Z,100576.41
2022-10-26T10:16:24.095Z,100573.84
2022-10-26T10:18:59.484Z,100568.69
2022-10-26T10:21:35.978Z,100559.41
2022-10-26T10:24:02.579Z,100550.34
2022-10-26T10:26:29.144Z,100581.81
2022-10-26T10:29:00.958Z,100588.75
2022-10-26T10:31:29.988Z,100591.44
2022-10-26T10:33:56.852Z,100602.78
2022-10-26T10:36:29.872Z,100598.50
2022-10-26T10:38:56.628Z,100592.84
2022-10-26T10:41:37.389Z,100591.44
2022-10-26T10:44:22.647Z,100600.91
2022-10-26T10:46:49.386Z,100616.63
2022-10-26T10:49:25.158Z,100609.91
2022-10-26T10:51:52.020Z,100608.53
2022-10-26T10:54:39.550Z,100608.44
2022-10-26T10:57:25.800Z,100598.91
2022-10-26T11:00:03.215Z,100598.72
2022-10-26T11:02:43.298Z,100586.94
2022-10-26T11:06:00.137Z,100609.84
2022-10-26T11:08:50.553Z,100623.63
2022-10-26T11:11:22.387Z,100634.06
2022-10-26T11:13:55.406Z,100617.28
2022-10-26T11:17:05.161Z,100624.59
2022-10-26T11:19:43.008Z,100614.75
2022-10-26T11:22:17.126Z,100633.06
2022-10-26T11:24:49.232Z,100636.63
2022-10-26T11:27:19.580Z,100622.06
2022-10-26T11:29:58.500Z,100610.16
2022-10-26T11:32:41.097Z,100636.22
2022-10-26T11:35:20.158Z,100631.91
2022-10-26T11:37:56.795Z,100630.56
2022-10-26T11:40:45.473Z,100633.06
2022-10-26T11:43:27.381Z,100635.66
2022-10-26T11:46:06.976Z,100644.50
2022-10-26T11:48:44.612Z,100614.19
2022-10-26T11:51:20.441Z,100613.22
2022-10-26T11:53:47.866Z,100637.94
2022-10-26T11:56:31.005Z,100611.13
2022-10-26T11:58:59.734Z,100633.34
2022-10-26T12:01:28.841Z,100640.31
2022-10-26T12:04:00.132Z,100639.41
2022-10-26T12:06:33.785Z,100640.19
2022-10-26T12:09:13.254Z,100644.69
2022-10-26T12:11:49.517Z,100642.13
2022-10-26T12:14:22.951Z,100643.72
2022-10-26T12:16:57.516Z,100622.38
2022-10-26T12:19:33.615Z,100643.63
2022-10-26T12:22:00.781Z,100635.56
2022-10-26T12:24:33.508Z,100649.72
2022-10-26T12:27:05.595Z,100635.28
2022-10-26T12:29:38.199Z,100656.69
2022-10-26T12:32:25.663Z,100646.56
2022-10-26T12:34:52.240Z,100657.69
2022-10-26T12:37:31.631Z,100660.03
2022-10-26T12:40:32.960Z,100659.19
2022-10-26T12:43:14.712Z,100663.91
2022-10-26T12:45:46.331Z,100654.38
2022-10-26T12:48:43.319Z,100660.69
2022-10-26T12:51:22.662Z,100648.25
2022-10-26T12:53:58.014Z,100636.97
2022-10-26T12:56:49.041Z,100621.38
2022-10-26T12:59:42.077Z,100663.03
2022-10-26T13:02:32.445Z,100664.00
2022-10-26T13:05:22.381Z,100668.38
2022-10-26T13:07:49.944Z,100666.19
2022-10-26T13:10:26.065Z,100662.31
2022-10-26T13:12:58.456Z,100667.56
2022-10-26T13:15:52.113Z,100681.09
2022-10-26T13:18:20.425Z,100667.56
2022-10-26T13:21:05.539Z,100673.56
2022-10-26T13:23:34.033Z,100677.84
2022-10-26T13:26:17.836Z,100669.03
2022-10-26T13:28:51.786Z,100672.09
2022-10-26T13:31:24.241Z,100677.72
2022-10-26T13:33:57.693Z,100674.06
2022-10-26T13:36:36.531Z,100667.47
2022-10-26T13:39:13.534Z,100679.34
2022-10-26T13:41:44.558Z,100682.41
2022-10-26T13:44:23.736Z,100685.34
2022-10-26T13:46:58.472Z,100679.84
2022-10-26T13:49:30.351Z,100679.34
2022-10-26T13:52:01.780Z,100688.13
2022-10-26T13:54:47.260Z,100697.41
2022-10-26T13:57:20.386Z,100688.00
2022-10-26T13:59:47.007Z,100691.16
2022-10-26T14:02:25.382Z,100675.78
2022-10-26T14:05:13.580Z,100675.91
2022-10-26T14:07:57.588Z,100697.75
2022-10-26T14:10:41.715Z,100695.78
2022-10-26T14:13:13.428Z,100701.91
2022-10-26T14:15:44.462Z,100696.53
2022-10-26T14:18:21.499Z,100702.13
2022-10-26T14:21:03.411Z,100704.69
2022-10-26T14:23:45.011Z,100687.84
2022-10-26T14:26:20.973Z,100716.28
2022-10-26T14:28:51.840Z,100718.34
2022-10-26T14:31:33.046Z,100726.06
2022-10-26T14:34:01.878Z,100701.78
2022-10-26T14:36:38.976Z,100711.16
2022-10-26T14:39:16.553Z,100711.31
2022-10-26T14:41:43.623Z,100714.84
2022-10-26T14:44:20.879Z,100721.19
2022-10-26T14:46:48.782Z,100709.19
2022-10-26T14:49:21.754Z,100712.09
2022-10-26T14:51:49.338Z,100720.53
2022-10-26T14:54:24.682Z,100711.13
2022-10-26T14:56:51.724Z,100707.44
2022-10-26T14:59:24.386Z,100724.75
2022-10-26T15:02:16.179Z,100731.72
2022-10-26T15:05:01.199Z,100730.97
2022-10-26T15:07:38.351Z,100734.75
2022-10-26T15:10:06.385Z,100733.25
2022-10-26T15:12:37.734Z,100731.56
2022-10-26T15:15:17.646Z,100733.41
2022-10-26T15:17:56.315Z,100713.69
2022-10-26T15:20:25.315Z,100738.88
2022-10-26T15:23:01.034Z,100746.41
2022-10-26T15:25:30.517Z,100728.84
2022-10-26T15:28:21.490Z,100744.63
2022-10-26T15:31:11.931Z,100754.59
2022-10-26T15:33:38.407Z,100753.22
2022-10-26T15:36:07.820Z,100759.66
2022-10-26T15:38:38.043Z,100758.19
2022-10-26T15:41:05.240Z,100746.19
2022-10-26T15:43:31.830Z,100750.53
2022-10-26T15:45:58.391Z,100763.72
2022-10-26T15:48:30.075Z,100769.50
2022-10-26T15:50:56.948Z,100765.44
2022-10-26T15:53:27.621Z,100766.97
2022-10-26T15:55:56.740Z,100775.44
2022-10-26T15:58:23.751Z,100778.56
2022-10-26T16:00:50.676Z,100765.19
2022-10-26T16:03:20.750Z,100779.31
2022-10-26T16:05:49.138Z,100791.00
2022-10-26T16:08:18.389Z,100768.94
2022-10-26T16:10:45.780Z,100785.88
2022-10-26T16:13:13.639Z,100790.38
2022-10-26T16:15:40.524Z,100792.72
2022-10-26T16:18:07.077Z,100794.84
2022-10-26T16:20:33.916Z,100796.13
2022-10-26T16:23:06.486Z,100805.22
2022-10-26T16:25:42.116Z,100809.38
2022-10-26T16:28:11.315Z,100813.25
2022-10-26T16:30:37.895Z,100820.53
2022-10-26T16:33:04.478Z,100807.56
2022-10-26T16:35:31.214Z,100825.22
2022-10-26T16:37:57.839Z,100826.28
2022-10-26T16:40:24.990Z,100830.69
2022-10-26T16:42:52.306Z,100822.84
2022-10-26T16:45:19.321Z,100819.66
2022-10-26T16:47:46.180Z,100829.72
2022-10-26T16:50:13.826Z,100835.94
2022-10-26T16:52:40.653Z,100840.63
2022-10-26T16:55:09.062Z,100844.47
2022-10-26T16:57:36.681Z,100851.63
2022-10-26T17:00:06.021Z,100846.59
2022-10-26T17:02:32.863Z,100843.78
2022-10-26T17:05:02.694Z,100855.22
2022-10-26T17:07:32.596Z,100868.81
2022-10-26T17:09:59.137Z,100864.63
2022-10-26T17:14:53.228Z,100873.06
2022-10-26T17:17:19.777Z,100871.63
2022-10-26T17:19:46.332Z,100851.03
2022-10-26T17:22:12.857Z,100874.31
2022-10-26T17:24:39.526Z,100873.88
2022-10-26T17:27:06.070Z,100884.38
2022-10-26T17:29:32.739Z,100887.16
2022-10-26T17:31:59.249Z,100882.94
2022-10-26T17:34:25.907Z,100894.69
2022-10-26T17:36:52.484Z,100894.03
2022-10-26T17:39:19.975Z,100900.34
2022-10-26T17:41:46.913Z,100898.84
2022-10-26T17:44:13.477Z,100918.50
2022-10-26T17:46:40.234Z,100926.44
2022-10-26T17:49:08.865Z,100934.53
2022-10-26T17:51:35.434Z,100932.88
2022-10-26T17:54:02.060Z,100946.88
2022-10-26T17:56:31.684Z,100941.75
2022-10-26T17:59:00.445Z,100940.31
2022-10-26T18:01:27.849Z,100933.28
2022-10-26T18:03:55.174Z,100926.63
2022-10-26T18:06:22.239Z,100955.44
2022-10-26T18:08:48.830Z,100936.81
2022-10-26T18:11:26.162Z,100929.47
2022-10-26T18:13:54.431Z,100955.69
2022-10-26T18:16:24.728Z,100939.84
2022-10-26T18:19:10.118Z,100960.75
2022-10-26T18:21:39.999Z,100960.56
2022-10-26T18:24:08.193Z,100972.75
2022-10-26T18:26:34.828Z,100960.31
2022-10-26T18:29:03.608Z,100953.38
2022-10-26T18:31:31.852Z,100967.47
2022-10-26T18:34:04.795Z,100971.88
2022-10-26T18:36:31.895Z,100994.31
2022-10-26T18:38:58.612Z,100996.88
2022-10-26T18:41:26.080Z,100994.66
2022-10-26T18:43:58.911Z,100979.00
2022-10-26T18:46:31.160Z,101009.56
2022-10-26T18:48:58.654Z,101013.84
2022-10-26T18:51:28.991Z,101009.47
2022-10-26T18:53:56.693Z,101015.69
2022-10-26T18:56:24.911Z,101005.34
2022-10-26T18:58:55.670Z,100998.91
2022-10-26T19:01:27.808Z,101026.19
2022-10-26T19:03:56.880Z,101003.22
2022-10-26T19:06:29.311Z,101017.28
2022-10-26T19:08:56.356Z,101019.94
2022-10-26T19:11:24.782Z,101003.81
2022-10-26T19:13:54.160Z,101023.75
2022-10-26T19:19:17.018Z,100993.78
2022-10-26T19:21:45.033Z,101020.63
2022-10-26T19:24:15.993Z,101019.84
2022-10-26T19:26:44.013Z,101018.91
2022-10-26T19:29:16.575Z,101018.28
2022-10-26T19:31:47.366Z,101024.69
2022-10-26T19:34:14.680Z,101035.25
2022-10-26T19:36:44.886Z,101044.13
2022-10-26T19:39:13.053Z,101045.84
2022-10-26T19:41:39.620Z,101041.28
2022-10-26T19:44:07.933Z,101035.09
2022-10-26T19:46:34.879Z,101042.31
2022-10-26T19:49:02.127Z,101023.38
2022-10-26T19:51:31.083Z,101034.06
2022-10-26T19:54:03.900Z,101049.91
2022-10-26T19:56:31.884Z,101069.19
2022-10-26T19:58:58.585Z,101067.66
2022-10-26T20:01:25.556Z,101075.72
2022-10-26T20:03:52.348Z,101074.16
2022-10-26T20:06:19.282Z,101048.94
2022-10-26T20:08:48.016Z,101085.38
2022-10-26T20:11:16.778Z,101078.63
2022-10-26T20:13:45.474Z,101083.09
2022-10-26T20:16:12.747Z,101089.91
2022-10-26T20:18:43.961Z,101096.09
2022-10-26T20:21:14.822Z,101097.34
2022-10-26T20:23:41.660Z,101096.84
2022-10-26T20:26:08.627Z,101100.69
2022-10-26T20:28:35.283Z,101097.31
2022-10-26T20:31:01.888Z,101068.28
2022-10-26T20:33:29.308Z,101100.34
2022-10-26T20:35:57.740Z,101087.41
2022-10-26T20:38:24.581Z,101100.56
2022-10-26T20:40:59.019Z,101103.47
2022-10-26T20:43:26.939Z,101103.72
2022-10-26T20:45:54.583Z,101101.16
2022-10-26T20:48:22.084Z,101102.38
2022-10-26T20:51:06.304Z,101094.81
2022-10-26T20:53:38.136Z,101088.78
2022-10-26T20:56:19.893Z,101077.00
2022-10-26T20:58:57.712Z,101100.44
2022-10-26T21:01:34.804Z,101098.75
2022-10-26T21:04:03.678Z,101097.28
2022-10-26T21:06:32.228Z,101103.78
2022-10-26T21:08:58.809Z,101106.75
2022-10-26T21:11:25.912Z,101113.56
2022-10-26T21:13:53.981Z,101111.97
2022-10-26T21:18:53.068Z,101110.00
2022-10-26T21:21:19.674Z,101099.91
2022-10-26T21:23:46.347Z,101120.13
2022-10-26T21:26:12.889Z,101126.59
2022-10-26T21:28:41.948Z,101104.97
2022-10-26T21:31:13.188Z,101126.81
2022-10-26T21:33:40.082Z,101125.06
2022-10-26T21:36:09.333Z,101129.69
2022-10-26T21:38:35.999Z,101109.00
2022-10-26T21:41:07.479Z,101130.66
2022-10-26T21:43:34.982Z,101130.78
2022-10-26T21:46:03.945Z,101139.63
2022-10-26T21:48:31.947Z,101137.13
2022-10-26T21:51:00.586Z,101131.13
2022-10-26T21:53:27.532Z,101141.72
2022-10-26T21:56:01.861Z,101143.59
2022-10-26T21:58:29.343Z,101139.19
2022-10-26T22:01:03.613Z,101144.50
2022-10-26T22:03:30.224Z,101141.00
2022-10-26T22:05:56.877Z,101133.00
2022-10-26T22:08:23.391Z,101134.72
2022-10-26T22:10:49.947Z,101121.66
2022-10-26T22:13:16.507Z,101122.53
2022-10-26T22:15:43.144Z,101104.41
2022-10-26T22:18:09.790Z,101129.00
2022-10-26T22:20:36.340Z,101133.31
2022-10-26T22:25:32.737Z,101143.16
2022-10-26T22:27:59.576Z,101117.34
2022-10-26T22:30:26.098Z,101135.47
2022-10-26T22:32:53.031Z,101122.66
2022-10-26T22:35:35.081Z,101117.56
2022-10-26T22:38:01.631Z,101140.28
2022-10-26T22:40:28.116Z,101148.28
2022-10-26T22:42:54.727Z,101143.09
2022-10-26T22:45:21.313Z,101151.78
2022-10-26T22:47:47.813Z,101127.41
2022-10-26T22:50:14.460Z,101132.72
2022-10-26T22:52:41.044Z,101151.00
2022-10-26T22:55:08.223Z,101151.13
2022-10-26T22:57:34.860Z,101153.78
2022-10-26T23:00:01.525Z,101112.19
2022-10-26T23:02:28.061Z,101150.28
2022-10-26T23:04:54.629Z,101152.19
2022-10-26T23:07:21.160Z,101133.25
2022-10-26T23:09:47.679Z,101158.75
2022-10-26T23:12:14.188Z,101139.00
2022-10-26T23:14:41.992Z,101145.66
2022-10-26T23:17:09.960Z,101154.50
2022-10-26T23:19:36.452Z,101174.91
2022-10-26T23:22:02.985Z,101178.78
2022-10-26T23:24:29.599Z,101174.56
2022-10-26T23:26:56.134Z,101152.31
2022-10-26T23:29:22.693Z,101157.91
2022-10-26T23:31:49.171Z,101151.31
2022-10-26T23:34:15.698Z,101164.47
2022-10-26T23:36:42.200Z,101177.75
2022-10-26T23:39:08.724Z,101167.78
2022-10-26T23:41:35.256Z,101182.91
2022-10-26T23:44:01.742Z,101182.09
2022-10-26T23:46:28.402Z,101186.41
2022-10-26T23:48:54.933Z,101183.72
2022-10-26T23:51:21.416Z,101191.03
2022-10-26T23:53:48.041Z,101187.88
2022-10-26T23:56:14.572Z,101197.72
2022-10-26T23:58:41.068Z,101188.38
